Time;durP1;ratioP1;P1;durP2;ratioP2;P2;SDS_P1;SDS_P2;PMS_P1;PMS_P2;Temp;Humidity;BMP_temperature;BMP_pressure;BME280_temperature;BME280_humidity;BME280_pressure;Samples;Min_cycle;Max_cycle;Signal;HPM_P1;HPM_P2
2023/05/07 00:02:22;;;;;;;14.77;12.45;;;;;;;15.37;100.00;100589.81;8280108;28;20042;-58
2023/05/07 00:06:23;;;;;;;17.80;13.82;;;;;;;15.43;100.00;100583.66;8276967;28;20440;-58
2023/05/07 00:10:25;;;;;;;20.77;15.20;;;;;;;15.35;100.00;100583.66;8291546;28;20513;-58
2023/05/07 00:14:25;;;;;;;19.65;15.63;;;;;;;15.35;100.00;100575.47;8294481;28;20408;-55
2023/05/07 00:18:26;;;;;;;25.23;15.77;;;;;;;15.34;100.00;100575.66;8293453;28;20092;-55
2023/05/07 00:22:26;;;;;;;19.33;16.00;;;;;;;15.36;100.00;100577.19;8293561;28;20534;-57
2023/05/07 00:26:27;;;;;;;20.58;15.15;;;;;;;15.44;100.00;100574.47;8293628;28;20404;-56
2023/05/07 00:30:28;;;;;;;20.23;14.73;;;;;;;15.43;100.00;100575.50;8294125;28;20048;-58
2023/05/07 00:34:28;;;;;;;22.00;15.82;;;;;;;15.53;100.00;100562.53;8292390;28;20630;-58
2023/05/07 00:38:28;;;;;;;22.45;16.02;;;;;;;15.54;100.00;100564.28;8288132;28;20049;-57
2023/05/07 00:42:29;;;;;;;19.83;16.33;;;;;;;15.51;100.00;100564.63;8292621;28;20548;-58
2023/05/07 00:46:30;;;;;;;24.08;15.68;;;;;;;15.49;100.00;100566.66;8292324;28;20042;-58
2023/05/07 00:50:32;;;;;;;24.15;16.85;;;;;;;15.45;100.00;100559.84;8292850;28;20072;-58
2023/05/07 00:54:34;;;;;;;21.52;16.60;;;;;;;15.42;100.00;100564.78;8293362;28;20121;-58
2023/05/07 00:58:34;;;;;;;24.25;17.15;;;;;;;15.40;100.00;100554.03;8291945;28;20168;-60
2023/05/07 01:02:36;;;;;;;25.67;18.27;;;;;;;15.44;100.00;100552.66;8290371;28;20092;-60
2023/05/07 01:06:37;;;;;;;23.15;17.42;;;;;;;15.46;100.00;100563.41;8293057;28;20053;-57
2023/05/07 01:10:42;;;;;;;25.85;16.90;;;;;;;15.45;100.00;100565.28;8291718;28;20049;-57
2023/05/07 01:14:43;;;;;;;32.38;17.60;;;;;;;15.43;100.00;100556.44;8292570;28;20064;-57
2023/05/07 01:18:44;;;;;;;26.23;18.30;;;;;;;15.43;100.00;100556.44;8291634;28;20041;-57
2023/05/07 01:22:45;;;;;;;29.48;18.05;;;;;;;15.41;100.00;100558.47;8291561;28;20034;-60
2023/05/07 01:26:47;;;;;;;30.52;18.98;;;;;;;15.43;100.00;100556.44;8292103;28;20113;-60
2023/05/07 01:30:55;;;;;;;32.20;19.50;;;;;;;15.40;100.00;100551.31;8292087;28;20077;-60
2023/05/07 01:34:58;;;;;;;33.85;18.92;;;;;;;15.41;100.00;100553.00;8285854;28;20322;-60
2023/05/07 01:38:59;;;;;;;32.45;19.33;;;;;;;15.37;100.00;100548.09;8290995;28;20037;-60
2023/05/07 01:43:02;;;;;;;41.65;22.33;;;;;;;15.37;100.00;100546.22;8292400;28;20038;-59
2023/05/07 01:47:03;;;;;;;44.17;23.50;;;;;;;15.34;100.00;100537.50;8292534;28;20113;-55
2023/05/07 01:51:05;;;;;;;46.65;26.13;;;;;;;15.32;100.00;100543.13;8290385;28;20034;-57
2023/05/07 01:55:06;;;;;;;53.75;28.02;;;;;;;15.26;100.00;100543.81;8290456;28;20500;-55
2023/05/07 01:59:07;;;;;;;52.85;28.10;;;;;;;15.24;100.00;100540.41;8290393;28;20535;-58
2023/05/07 02:03:07;;;;;;;57.65;31.00;;;;;;;15.23;100.00;100538.69;8289121;28;20388;-57
2023/05/07 02:07:15;;;;;;;60.80;33.28;;;;;;;15.25;100.00;100542.09;8289425;28;20100;-57
2023/05/07 02:11:17;;;;;;;60.08;32.33;;;;;;;15.26;100.00;100542.94;8291959;28;20205;-57
2023/05/07 02:15:17;;;;;;;63.38;31.75;;;;;;;15.24;100.00;100545.84;8307163;28;20033;-57
2023/05/07 02:19:20;;;;;;;63.33;33.72;;;;;;;15.16;100.00;100543.09;8290986;28;20034;-57
2023/05/07 02:23:21;;;;;;;59.55;32.60;;;;;;;15.12;100.00;100541.75;8289721;28;20033;-59
2023/05/07 02:27:21;;;;;;;62.17;32.72;;;;;;;15.12;100.00;100547.19;8291871;28;20045;-58
2023/05/07 02:31:22;;;;;;;64.30;34.47;;;;;;;15.06;100.00;100541.56;8291720;28;20039;-57
2023/05/07 02:35:24;;;;;;;67.85;34.60;;;;;;;15.05;100.00;100554.34;8291786;28;20511;-57
2023/05/07 02:39:25;;;;;;;72.35;37.42;;;;;;;15.02;100.00;100551.97;8290937;28;20038;-57
2023/05/07 02:43:26;;;;;;;68.05;34.70;;;;;;;14.98;100.00;100553.28;8291598;28;20042;-57
2023/05/07 02:47:27;;;;;;;73.32;35.53;;;;;;;14.98;100.00;100555.19;8290539;28;20034;-57
2023/05/07 02:51:30;;;;;;;61.92;33.35;;;;;;;14.90;100.00;100553.28;8290805;28;20526;-57
2023/05/07 02:55:33;;;;;;;59.97;32.60;;;;;;;14.88;100.00;100540.88;8291435;28;20534;-57
2023/05/07 02:59:34;;;;;;;48.90;26.92;;;;;;;14.86;100.00;100541.06;8291076;28;20420;-57
2023/05/07 03:03:35;;;;;;;55.03;27.70;;;;;;;14.84;100.00;100543.06;8289704;28;20426;-57
2023/05/07 03:07:36;;;;;;;50.75;26.33;;;;;;;14.79;100.00;100540.00;8290765;28;20052;-57
2023/05/07 03:11:37;;;;;;;44.35;24.15;;;;;;;14.77;100.00;100546.63;8290960;28;20042;-57
2023/05/07 03:15:37;;;;;;;45.85;25.73;;;;;;;14.70;100.00;100532.81;8290690;28;20061;-57
2023/05/07 03:19:38;;;;;;;36.75;22.50;;;;;;;14.71;100.00;100537.28;8289997;28;20073;-57
2023/05/07 03:23:38;;;;;;;50.63;25.52;;;;;;;14.73;100.00;100529.78;8289826;28;20042;-57
2023/05/07 03:27:39;;;;;;;49.20;27.38;;;;;;;14.63;100.00;100539.97;8289937;28;20045;-57
2023/05/07 03:31:40;;;;;;;50.13;28.75;;;;;;;14.57;100.00;100523.44;8290948;28;20129;-57
2023/05/07 03:35:40;;;;;;;52.42;29.27;;;;;;;14.44;100.00;100525.78;8295965;28;20113;-57
2023/05/07 03:39:41;;;;;;;48.70;27.33;;;;;;;14.43;100.00;100538.56;8296735;28;20045;-57
2023/05/07 03:43:42;;;;;;;50.55;28.10;;;;;;;14.52;100.00;100526.66;8296234;28;20034;-57
2023/05/07 03:47:45;;;;;;;58.40;29.70;;;;;;;14.53;100.00;100528.38;8296325;28;20044;-57
2023/05/07 03:51:50;;;;;;;60.80;29.70;;;;;;;14.59;100.00;100522.28;8295087;28;20049;-57
2023/05/07 03:55:52;;;;;;;57.97;28.58;;;;;;;14.55;100.00;100526.31;8287729;28;20034;-58
2023/05/07 03:59:52;;;;;;;48.78;24.50;;;;;;;14.56;100.00;100530.75;8296564;28;20061;-58
2023/05/07 04:03:53;;;;;;;48.92;25.30;;;;;;;14.63;100.00;100545.41;8296250;28;20041;-58
2023/05/07 04:07:54;;;;;;;59.15;26.38;;;;;;;14.75;100.00;100552.25;8294094;28;20080;-60
2023/05/07 04:12:01;;;;;;;54.28;25.83;;;;;;;14.80;100.00;100558.03;8296538;28;20041;-59
2023/05/07 04:16:03;;;;;;;49.08;26.05;;;;;;;14.79;100.00;100550.03;8295614;28;20504;-59
2023/05/07 04:20:04;;;;;;;54.78;25.88;;;;;;;14.70;100.00;100551.88;8295120;28;20106;-60
2023/05/07 04:24:05;;;;;;;47.60;24.92;;;;;;;14.71;100.00;100542.72;8295810;28;20029;-59
2023/05/07 04:28:06;;;;;;;46.05;24.45;;;;;;;14.71;100.00;100548.16;8295456;28;20038;-60
2023/05/07 04:32:09;;;;;;;42.25;22.58;;;;;;;14.70;100.00;100541.00;8295612;28;20045;-59
2023/05/07 04:36:11;;;;;;;43.78;23.00;;;;;;;14.71;100.00;100539.13;8294073;28;20180;-60
2023/05/07 04:40:19;;;;;;;42.67;21.50;;;;;;;14.69;100.00;100533.00;8294260;28;20064;-59
2023/05/07 04:44:20;;;;;;;40.88;20.60;;;;;;;14.74;100.00;100534.22;8277241;28;20038;-59
2023/05/07 04:48:21;;;;;;;35.95;19.60;;;;;;;14.80;100.00;100539.00;8286471;28;20034;-59
2023/05/07 04:52:24;;;;;;;32.53;16.33;;;;;;;14.88;100.00;100544.44;8294864;28;20034;-59
2023/05/07 04:56:28;;;;;;;32.10;17.13;;;;;;;14.87;100.00;100541.88;8294928;28;20038;-59
2023/05/07 05:00:29;;;;;;;28.70;16.83;;;;;;;14.96;100.00;100546.31;8294998;28;20030;-60
2023/05/07 05:04:31;;;;;;;30.00;16.63;;;;;;;15.02;100.00;100551.09;8280176;28;20406;-60
2023/05/07 05:08:32;;;;;;;29.27;15.57;;;;;;;15.06;100.00;100553.31;8274967;28;20034;-59
2023/05/07 05:12:33;;;;;;;26.10;15.77;;;;;;;15.13;100.00;100558.94;8294254;28;20061;-60
2023/05/07 05:16:35;;;;;;;26.13;15.82;;;;;;;15.20;100.00;100554.53;8293596;28;20076;-59
2023/05/07 05:20:36;;;;;;;23.50;14.57;;;;;;;15.16;100.00;100562.16;8292846;28;20045;-60
2023/05/07 05:24:37;;;;;;;27.85;15.45;;;;;;;15.26;100.00;100571.06;8293450;28;20050;-59
2023/05/07 05:28:37;;;;;;;24.67;16.35;;;;;;;15.30;100.00;100572.41;8289681;28;20045;-60
2023/05/07 05:32:38;;;;;;;25.08;15.57;;;;;;;15.40;100.00;100575.84;8293723;28;20065;-60
2023/05/07 05:36:40;;;;;;;22.55;15.10;;;;;;;15.54;100.00;100580.63;8283528;28;20046;-60
2023/05/07 05:40:41;;;;;;;26.73;15.70;;;;;;;15.66;100.00;100586.56;8284966;28;20046;-60
2023/05/07 05:44:42;;;;;;;25.02;15.00;;;;;;;15.85;100.00;100569.00;8271745;28;20062;-59
2023/05/07 05:48:43;;;;;;;22.67;15.48;;;;;;;16.05;100.00;100583.94;8266569;28;20107;-59
2023/05/07 05:52:45;;;;;;;19.40;13.32;;;;;;;16.21;100.00;100589.34;8291385;28;20559;-62
2023/05/07 05:56:46;;;;;;;19.83;12.50;;;;;;;16.38;100.00;100585.56;8291960;28;20447;-62
2023/05/07 06:00:51;;;;;;;15.70;11.50;;;;;;;16.37;100.00;100578.38;8281539;28;20033;-60
2023/05/07 06:04:52;;;;;;;12.00;10.07;;;;;;;16.49;100.00;100572.41;8284308;28;20048;-59
2023/05/07 06:08:55;;;;;;;12.50;9.90;;;;;;;16.61;100.00;100575.59;8292351;28;20041;-59
2023/05/07 06:13:03;;;;;;;15.73;10.93;;;;;;;16.73;100.00;100579.63;8288961;28;20107;-59
2023/05/07 06:17:05;;;;;;;12.35;10.32;;;;;;;16.85;100.00;100583.66;8292424;28;20042;-59
2023/05/07 06:21:06;;;;;;;12.90;9.23;;;;;;;16.93;100.00;100586.38;8290128;28;20045;-61
2023/05/07 06:25:09;;;;;;;13.98;9.32;;;;;;;17.25;100.00;100583.41;8292306;28;20091;-60
2023/05/07 06:29:09;;;;;;;12.27;8.82;;;;;;;17.35;100.00;100586.75;8288564;28;20034;-60
2023/05/07 06:33:10;;;;;;;15.23;9.10;;;;;;;17.41;100.00;100575.06;8271455;28;20042;-60
2023/05/07 06:37:11;;;;;;;10.07;8.38;;;;;;;17.31;100.00;100591.75;8289199;28;20120;-60
2023/05/07 06:41:30;;;;;;;9.63;7.45;;;;;;;17.30;100.00;100605.59;8285133;28;20034;-60
2023/05/07 06:45:37;;;;;;;11.07;8.05;;;;;;;17.37;100.00;100595.63;8291071;28;20041;-60
2023/05/07 06:49:39;;;;;;;11.40;8.25;;;;;;;17.50;100.00;100601.34;8291149;28;20389;-60
2023/05/07 06:53:40;;;;;;;10.88;8.27;;;;;;;17.44;100.00;100592.00;8291544;28;20073;-60
2023/05/07 06:57:43;;;;;;;11.10;8.27;;;;;;;17.63;100.00;100601.59;8290790;28;20044;-62
2023/05/07 07:01:44;;;;;;;9.57;7.50;;;;;;;17.99;100.00;100607.25;8290380;28;20037;-59
2023/05/07 07:05:45;;;;;;;9.75;7.05;;;;;;;17.96;100.00;100602.97;8269339;28;20464;-59
2023/05/07 07:09:49;;;;;;;8.98;6.80;;;;;;;18.05;100.00;100601.88;8276998;28;20507;-59
2023/05/07 07:13:54;;;;;;;9.38;7.28;;;;;;;18.25;100.00;100602.19;8255908;28;20038;-60
2023/05/07 07:17:55;;;;;;;8.70;6.45;;;;;;;18.40;100.00;100600.34;8279041;28;20104;-59
2023/05/07 07:21:57;;;;;;;6.28;5.15;;;;;;;18.62;100.00;100610.31;8294728;28;20441;-59
2023/05/07 07:25:57;;;;;;;6.53;4.55;;;;;;;18.52;99.64;100615.25;8294705;28;20038;-59
2023/05/07 07:29:58;;;;;;;6.50;4.60;;;;;;;18.77;98.80;100619.38;8294793;28;20042;-60
2023/05/07 07:33:59;;;;;;;3.60;3.30;;;;;;;18.72;96.35;100611.75;8293532;28;20048;-59
2023/05/07 07:38:00;;;;;;;4.97;3.78;;;;;;;18.85;96.72;100611.91;8292574;28;20038;-59
2023/05/07 07:42:00;;;;;;;7.45;3.88;;;;;;;19.16;98.98;100609.75;8292882;28;20062;-59
2023/05/07 07:46:03;;;;;;;5.88;4.10;;;;;;;19.19;95.44;100614.84;8293228;28;20052;-59
2023/05/07 07:50:05;;;;;;;9.48;4.00;;;;;;;19.01;96.73;100622.66;8293187;28;20045;-59
2023/05/07 07:54:06;;;;;;;4.82;3.47;;;;;;;19.28;95.61;100619.19;8294055;28;20076;-60
2023/05/07 07:58:08;;;;;;;5.18;3.28;;;;;;;19.43;94.20;100622.75;8293617;28;20034;-59
2023/05/07 08:02:09;;;;;;;5.40;3.90;;;;;;;19.52;93.31;100626.22;8293289;28;20503;-59
2023/05/07 08:06:10;;;;;;;3.53;2.92;;;;;;;19.55;91.60;100630.47;8292077;28;20407;-59
2023/05/07 08:10:11;;;;;;;5.43;3.15;;;;;;;19.74;90.42;100618.81;8294578;28;20102;-59
2023/05/07 08:14:12;;;;;;;6.28;3.15;;;;;;;20.22;93.15;100629.81;8293622;28;20404;-59
2023/05/07 08:18:13;;;;;;;6.22;3.38;;;;;;;20.36;92.27;100625.25;8291690;28;20408;-59
2023/05/07 08:22:14;;;;;;;8.00;3.10;;;;;;;20.34;90.49;100628.22;8293813;28;20526;-59
2023/05/07 08:26:14;;;;;;;4.45;2.97;;;;;;;20.47;91.61;100621.97;8293236;28;20061;-60
2023/05/07 08:30:16;;;;;;;4.40;2.92;;;;;;;20.57;90.26;100622.44;8294211;28;20092;-59
2023/05/07 08:34:17;;;;;;;4.68;2.63;;;;;;;20.66;84.14;100633.09;8292134;28;20041;-59
2023/05/07 08:38:20;;;;;;;4.15;2.92;;;;;;;20.83;85.01;100633.59;8292120;28;20037;-60
2023/05/07 08:42:24;;;;;;;5.13;2.83;;;;;;;20.89;86.38;100633.59;8293048;28;20096;-60
2023/05/07 08:46:25;;;;;;;2.77;2.23;;;;;;;21.13;85.54;100637.75;8287768;28;20038;-59
2023/05/07 08:50:29;;;;;;;6.65;2.90;;;;;;;21.19;84.20;100623.19;8285019;28;20056;-60
2023/05/07 08:54:32;;;;;;;6.68;2.35;;;;;;;21.33;84.58;100624.94;8278173;28;20034;-59
2023/05/07 08:58:33;;;;;;;5.95;2.80;;;;;;;21.13;85.17;100629.50;8285387;28;20054;-60
2023/05/07 09:02:36;;;;;;;7.50;1.73;;;;;;;21.11;82.40;100626.97;8289246;28;20045;-60
2023/05/07 09:06:41;;;;;;;4.55;2.85;;;;;;;21.13;84.05;100624.00;8289568;28;20268;-60
2023/05/07 09:10:44;;;;;;;4.28;2.53;;;;;;;21.45;84.84;100619.66;8290705;28;20038;-60
2023/05/07 09:14:45;;;;;;;5.13;2.50;;;;;;;21.68;80.54;100623.72;8289573;28;20117;-59
2023/05/07 09:18:47;;;;;;;3.35;2.10;;;;;;;21.82;78.27;100624.63;8289340;28;20093;-59
2023/05/07 09:22:50;;;;;;;5.53;2.22;;;;;;;22.07;79.63;100607.25;8290357;28;20037;-60
2023/05/07 09:26:51;;;;;;;4.80;2.25;;;;;;;21.95;76.09;100621.88;8286112;28;20420;-60
2023/05/07 09:30:52;;;;;;;3.13;2.45;;;;;;;22.16;79.50;100617.00;8287610;28;20045;-60
2023/05/07 09:34:54;;;;;;;3.00;2.38;;;;;;;22.81;75.52;100621.59;8290677;28;20518;-60
2023/05/07 09:38:59;;;;;;;2.55;2.00;;;;;;;22.84;74.79;100616.47;8289607;28;20042;-59
2023/05/07 09:43:16;;;;;;;2.60;2.40;;;;;;;23.15;72.63;100621.22;8287911;28;20407;-59
2023/05/07 09:47:24;;;;;;;2.45;1.88;;;;;;;23.41;73.22;100614.72;8285593;28;20034;-60
2023/05/07 09:51:39;;;;;;;3.97;2.42;;;;;;;24.24;70.43;100626.25;8288898;28;20127;-60
2023/05/07 09:55:41;;;;;;;8.07;2.78;;;;;;;24.16;69.54;100622.94;8287197;28;20057;-60
2023/05/07 09:59:43;;;;;;;2.75;1.80;;;;;;;23.96;72.56;100628.63;8289623;28;20046;-60
2023/05/07 10:03:46;;;;;;;8.05;2.55;;;;;;;23.74;71.20;100629.19;8289923;28;20107;-59
2023/05/07 10:07:49;;;;;;;3.58;2.33;;;;;;;23.93;71.13;100622.66;8288139;28;20061;-60
2023/05/07 10:11:51;;;;;;;2.47;1.75;;;;;;;24.64;66.79;100615.66;8288800;28;20068;-59
2023/05/07 10:15:52;;;;;;;3.10;2.13;;;;;;;25.40;65.42;100605.78;8288486;28;20045;-60
2023/05/07 10:19:54;;;;;;;3.28;2.28;;;;;;;24.50;68.02;100625.16;8289142;28;20117;-60
2023/05/07 10:24:00;;;;;;;3.42;2.20;;;;;;;24.81;67.82;100617.63;8289420;28;20408;-59
2023/05/07 10:28:08;;;;;;;3.97;1.90;;;;;;;25.11;65.42;100614.91;8288704;28;20045;-60
2023/05/07 10:36:39;;;;;;;3.42;2.40;;;;;;;25.36;62.74;100621.19;8326136;27;20399;-59
2023/05/07 10:40:40;;;;;;;4.35;1.60;;;;;;;24.95;69.54;100623.84;8317034;28;20044;-59
2023/05/07 10:44:42;;;;;;;2.75;1.70;;;;;;;24.58;65.70;100624.88;8316620;28;20112;-58
2023/05/07 10:57:36;;;;;;;2.92;2.10;;;;;;;23.82;69.58;100626.16;8318180;28;20397;-59
2023/05/07 11:01:55;;;;;;;3.30;1.77;;;;;;;23.98;66.63;100617.34;8316186;28;20274;-59
2023/05/07 11:06:16;;;;;;;;;;;;;;;25.78;62.50;100614.59;8316403;28;20068;-59
2023/05/07 11:10:51;;;;;;;3.97;2.70;;;;;;;25.50;60.95;100603.31;8316193;28;19925;-60
2023/05/07 11:14:59;;;;;;;2.63;1.60;;;;;;;24.64;60.36;100604.59;8308925;28;20042;-59
2023/05/07 11:19:06;;;;;;;3.90;2.70;;;;;;;23.62;66.60;100600.59;8315362;28;20092;-59
2023/05/07 11:27:45;;;;;;;5.57;3.60;;;;;;;23.15;71.73;100600.00;8314004;28;20460;-57
2023/05/07 11:31:51;;;;;;;4.97;3.40;;;;;;;23.18;71.54;100602.31;8316954;28;20041;-57
2023/05/07 11:35:53;;;;;;;8.02;2.92;;;;;;;23.16;71.17;100601.72;8315230;28;20040;-59
2023/05/07 11:40:13;;;;;;;3.40;2.80;;;;;;;22.98;72.17;100607.09;8290898;28;20464;-57
2023/05/07 11:44:14;;;;;;;5.18;3.22;;;;;;;22.89;71.19;100604.78;8299967;28;20034;-57
2023/05/07 11:48:15;;;;;;;4.07;2.40;;;;;;;22.91;72.85;100606.25;8280736;28;20061;-57
2023/05/07 11:52:17;;;;;;;4.03;2.50;;;;;;;22.97;72.50;100608.13;8292865;28;20460;-57
2023/05/07 11:56:19;;;;;;;4.13;2.85;;;;;;;22.87;70.14;100604.13;8294399;28;20384;-56
2023/05/07 12:00:19;;;;;;;4.25;2.78;;;;;;;22.86;69.96;100608.84;8281599;28;20042;-57
2023/05/07 12:04:20;;;;;;;4.03;2.90;;;;;;;22.96;69.01;100613.88;8280074;28;20034;-56
2023/05/07 12:08:21;;;;;;;2.42;1.90;;;;;;;22.84;71.04;100616.47;8293277;28;20053;-57
2023/05/07 12:12:22;;;;;;;3.67;2.10;;;;;;;22.71;70.36;100616.50;8285709;28;20105;-58
2023/05/07 12:16:23;;;;;;;6.00;2.42;;;;;;;22.71;69.84;100616.50;8281135;28;20042;-57
2023/05/07 12:20:23;;;;;;;4.28;2.00;;;;;;;22.71;70.17;100621.16;8281571;28;20053;-57
2023/05/07 12:24:24;;;;;;;5.25;2.30;;;;;;;22.60;70.24;100633.72;8303193;28;20492;-57
2023/05/07 12:28:24;;;;;;;3.22;2.42;;;;;;;22.46;69.25;100640.28;8314599;28;20064;-57
2023/05/07 12:32:25;;;;;;;4.25;2.50;;;;;;;22.05;72.87;100636.09;8314282;28;20037;-62
2023/05/07 12:36:25;;;;;;;4.95;2.67;;;;;;;21.81;80.99;100645.81;8306045;28;20042;-63
2023/05/07 12:40:43;;;;;;;4.70;3.88;;;;;;;21.26;97.63;100646.09;8272478;28;20042;-63
2023/05/07 12:44:46;;;;;;;10.10;4.82;;;;;;;20.76;100.00;100649.19;8260434;28;20038;-63
2023/05/07 12:48:46;;;;;;;9.98;5.82;;;;;;;20.29;100.00;100657.34;8281166;28;20046;-57
2023/05/07 12:52:48;;;;;;;13.68;5.85;;;;;;;20.07;100.00;100655.66;8287651;28;20042;-57
2023/05/07 12:56:48;;;;;;;12.23;6.03;;;;;;;19.89;100.00;100652.53;8283618;28;20037;-59
2023/05/07 13:00:50;;;;;;;14.80;6.32;;;;;;;19.78;100.00;100659.38;8291881;28;20041;-59
2023/05/07 13:04:50;;;;;;;10.27;6.05;;;;;;;19.66;100.00;100665.59;8291109;28;20034;-59
2023/05/07 13:08:51;;;;;;;10.25;7.20;;;;;;;19.61;100.00;100662.59;8290328;28;20042;-59
2023/05/07 13:12:51;;;;;;;9.77;5.75;;;;;;;19.52;100.00;100662.72;8288059;28;20037;-59
2023/05/07 13:16:52;;;;;;;7.15;4.93;;;;;;;19.40;100.00;100653.28;8286833;28;20045;-59
2023/05/07 13:20:53;;;;;;;6.55;5.05;;;;;;;19.48;100.00;100656.97;8287551;28;20038;-59
2023/05/07 13:24:54;;;;;;;16.45;5.72;;;;;;;19.34;100.00;100655.97;8275093;28;20073;-59
2023/05/07 13:28:54;;;;;;;8.88;5.57;;;;;;;19.32;100.00;100645.22;8269768;28;20038;-59
2023/05/07 13:32:55;;;;;;;10.18;6.15;;;;;;;19.66;100.00;100660.09;8255889;28;20129;-59
2023/05/07 13:36:56;;;;;;;7.10;5.80;;;;;;;19.67;100.00;100670.03;8271047;28;20057;-59
2023/05/07 13:40:56;;;;;;;9.45;6.00;;;;;;;19.80;100.00;100672.91;8272725;28;20038;-59
2023/05/07 13:44:57;;;;;;;12.00;7.28;;;;;;;19.79;100.00;100665.75;8240025;28;20037;-59
2023/05/07 13:48:57;;;;;;;7.00;4.40;;;;;;;19.79;100.00;100671.22;8270077;28;20058;-59
2023/05/07 13:52:58;;;;;;;7.60;3.45;;;;;;;19.57;100.00;100667.63;8265076;28;20050;-59
2023/05/07 13:56:58;;;;;;;3.67;2.88;;;;;;;19.46;100.00;100671.72;8256744;28;20104;-59
2023/05/07 14:00:58;;;;;;;2.45;1.88;;;;;;;19.25;100.00;100668.91;8271438;28;20042;-59
2023/05/07 14:04:59;;;;;;;2.67;1.38;;;;;;;19.07;100.00;100671.22;8276172;28;20038;-59
2023/05/07 14:09:00;;;;;;;1.92;1.17;;;;;;;18.91;100.00;100662.38;8268309;28;20528;-59
2023/05/07 14:13:00;;;;;;;2.95;1.48;;;;;;;18.88;100.00;100665.50;8254420;28;20053;-59
2023/05/07 14:17:00;;;;;;;2.93;1.20;;;;;;;18.79;100.00;100661.97;8269171;28;20448;-57
2023/05/07 14:21:01;;;;;;;4.93;0.98;;;;;;;18.58;100.00;100653.69;8280243;28;20315;-57
2023/05/07 14:25:02;;;;;;;4.20;1.20;;;;;;;18.62;100.00;100651.41;8270075;28;20046;-57
2023/05/07 14:29:03;;;;;;;2.03;1.08;;;;;;;18.73;100.00;100650.94;8282664;28;20050;-56
2023/05/07 14:33:03;;;;;;;4.38;1.40;;;;;;;18.84;100.00;100653.19;8285918;28;20042;-57
2023/05/07 14:37:03;;;;;;;4.35;1.20;;;;;;;18.96;100.00;100652.53;8285726;28;20045;-57
2023/05/07 14:41:04;;;;;;;3.20;1.20;;;;;;;19.19;100.00;100658.69;8282689;28;20100;-57
2023/05/07 14:45:05;;;;;;;1.98;1.00;;;;;;;19.33;100.00;100660.59;8282023;28;20041;-56
2023/05/07 14:49:06;;;;;;;2.50;1.38;;;;;;;19.46;100.00;100666.22;8257601;28;20428;-56
2023/05/07 14:53:07;;;;;;;3.13;1.60;;;;;;;19.64;100.00;100667.69;8271187;28;20045;-57
2023/05/07 14:57:10;;;;;;;8.68;1.50;;;;;;;19.87;100.00;100673.81;8284267;28;20045;-57
2023/05/07 15:01:11;;;;;;;4.88;2.10;;;;;;;20.06;100.00;100689.66;8272142;28;20046;-57
2023/05/07 15:05:11;;;;;;;4.10;2.38;;;;;;;20.11;100.00;100687.13;8283670;28;20046;-57
2023/05/07 15:09:12;;;;;;;3.55;2.97;;;;;;;20.20;100.00;100683.25;8285076;28;20072;-57
2023/05/07 15:13:12;;;;;;;6.43;2.88;;;;;;;20.27;100.00;100695.13;8300325;28;20491;-57
2023/05/07 15:17:14;;;;;;;4.35;3.38;;;;;;;20.29;100.00;100693.03;8249885;28;20053;-60
2023/05/07 15:21:15;;;;;;;4.80;3.03;;;;;;;20.24;100.00;100698.25;8258675;28;20038;-59
2023/05/07 15:25:17;;;;;;;6.60;2.97;;;;;;;20.24;100.00;100701.88;8284584;28;20045;-59
2023/05/07 15:29:18;;;;;;;5.68;3.00;;;;;;;20.23;100.00;100710.31;8281556;28;20045;-59
2023/05/07 15:33:19;;;;;;;6.43;3.50;;;;;;;20.37;100.00;100709.38;8285946;28;20121;-60
2023/05/07 15:37:19;;;;;;;6.30;3.10;;;;;;;20.31;98.51;100718.41;8284350;28;20043;-59
2023/05/07 15:41:20;;;;;;;5.18;3.50;;;;;;;20.42;98.33;100717.84;8269465;28;20093;-59
2023/05/07 15:45:21;;;;;;;4.35;3.25;;;;;;;20.44;98.46;100722.13;8248811;28;20065;-58
2023/05/07 15:49:21;;;;;;;5.97;3.53;;;;;;;20.47;96.68;100720.84;8248547;28;20137;-62
2023/05/07 15:53:22;;;;;;;3.95;3.05;;;;;;;20.54;94.92;100717.13;8274266;28;20124;-61
2023/05/07 15:57:24;;;;;;;4.35;2.78;;;;;;;20.60;93.40;100709.97;8282067;28;20087;-61
2023/05/07 16:01:24;;;;;;;7.90;3.38;;;;;;;20.60;90.92;100712.72;8292568;28;20424;-62
2023/05/07 16:05:25;;;;;;;3.80;2.85;;;;;;;20.64;91.37;100716.75;8303457;28;20034;-62
2023/05/07 16:09:28;;;;;;;8.23;3.40;;;;;;;20.59;92.82;100716.50;8281532;28;20165;-62
2023/05/07 16:13:28;;;;;;;8.27;3.42;;;;;;;20.57;93.63;100724.09;8295255;28;20048;-62
2023/05/07 16:17:29;;;;;;;5.68;3.22;;;;;;;20.47;94.10;100720.84;8286758;28;20068;-62
2023/05/07 16:21:29;;;;;;;7.28;3.20;;;;;;;20.46;95.45;100719.19;8272033;28;20042;-61
2023/05/07 16:25:31;;;;;;;4.07;3.42;;;;;;;20.52;96.59;100724.69;8312295;28;20040;-62
2023/05/07 16:29:31;;;;;;;5.80;3.63;;;;;;;20.43;96.62;100727.81;8303168;28;20045;-61
2023/05/07 16:33:32;;;;;;;8.18;3.72;;;;;;;20.44;98.66;100724.88;8302720;28;20034;-62
2023/05/07 16:37:33;;;;;;;9.20;4.30;;;;;;;20.38;98.59;100722.06;8281988;28;20055;-62
2023/05/07 16:41:33;;;;;;;6.50;3.97;;;;;;;20.33;100.00;100732.78;8285245;28;20053;-61
2023/05/07 16:45:34;;;;;;;3.97;3.60;;;;;;;20.29;100.00;100721.34;8303309;28;20419;-61
2023/05/07 16:49:34;;;;;;;6.78;3.67;;;;;;;20.28;100.00;100732.53;8304686;28;20068;-61
2023/05/07 16:53:35;;;;;;;4.55;3.58;;;;;;;20.22;100.00;100733.31;8299332;28;20037;-61
2023/05/07 16:57:36;;;;;;;5.38;3.95;;;;;;;20.16;100.00;100736.84;8308702;28;20121;-61
2023/05/07 17:01:36;;;;;;;7.95;4.70;;;;;;;20.06;100.00;100739.06;8283999;28;20038;-62
2023/05/07 17:05:37;;;;;;;5.82;4.28;;;;;;;20.03;100.00;100740.28;8300346;28;20030;-62
2023/05/07 17:09:38;;;;;;;6.85;4.03;;;;;;;20.04;100.00;100752.13;8294125;28;20099;-61
2023/05/07 17:13:39;;;;;;;8.50;4.00;;;;;;;19.99;100.00;100749.09;8303351;28;20041;-62
2023/05/07 17:17:40;;;;;;;9.55;3.88;;;;;;;19.95;100.00;100747.81;8305495;28;20041;-62
2023/05/07 17:21:41;;;;;;;9.45;4.20;;;;;;;19.82;100.00;100751.25;8288714;28;20048;-62
2023/05/07 17:25:44;;;;;;;7.30;4.03;;;;;;;19.72;100.00;100756.19;8302013;28;20092;-62
2023/05/07 17:29:44;;;;;;;4.20;3.42;;;;;;;19.72;100.00;100749.84;8281163;28;20045;-62
2023/05/07 17:33:45;;;;;;;4.70;3.60;;;;;;;19.66;100.00;100759.72;8232847;28;20042;-59
2023/05/07 17:37:51;;;;;;;6.82;3.75;;;;;;;19.57;100.00;100760.03;8230685;28;20187;-59
2023/05/07 17:41:51;;;;;;;6.97;3.90;;;;;;;19.59;100.00;100771.66;8235853;28;20484;-60
2023/05/07 17:45:52;;;;;;;8.93;4.03;;;;;;;19.38;100.00;100778.81;8299415;28;20042;-60
2023/05/07 17:49:52;;;;;;;9.82;4.30;;;;;;;19.35;100.00;100784.66;8297593;28;20512;-61
2023/05/07 17:53:55;;;;;;;4.90;3.40;;;;;;;19.31;100.00;100777.84;8303596;28;20044;-62
2023/05/07 17:57:55;;;;;;;12.18;4.43;;;;;;;19.31;100.00;100786.06;8276348;28;20056;-62
2023/05/07 18:01:55;;;;;;;6.30;3.80;;;;;;;19.17;100.00;100786.91;8273863;28;20038;-62
2023/05/07 18:05:56;;;;;;;8.25;4.47;;;;;;;19.26;100.00;100795.88;8284177;28;20034;-62
2023/05/07 18:09:56;;;;;;;7.63;5.10;;;;;;;19.25;100.00;100785.97;8305058;28;20033;-62
2023/05/07 18:13:57;;;;;;;11.00;4.72;;;;;;;19.19;100.00;100779.31;8280702;28;20041;-62
2023/05/07 18:17:57;;;;;;;9.98;5.13;;;;;;;19.22;100.00;100795.38;8301981;28;20123;-62
2023/05/07 18:21:58;;;;;;;11.85;5.10;;;;;;;19.14;100.00;100789.16;8300880;28;20457;-62
2023/05/07 18:25:59;;;;;;;5.63;4.65;;;;;;;19.17;100.00;100802.50;8303128;28;20073;-62
2023/05/07 18:29:59;;;;;;;14.25;5.00;;;;;;;19.12;100.00;100805.78;8290636;28;20566;-62
2023/05/07 18:34:00;;;;;;;11.45;5.50;;;;;;;19.08;100.00;100809.97;8265738;28;20041;-62
2023/05/07 18:38:01;;;;;;;10.98;5.95;;;;;;;19.05;100.00;100814.97;8288871;28;20035;-62
2023/05/07 18:42:04;;;;;;;8.77;5.90;;;;;;;19.05;100.00;100821.31;8281356;28;20124;-62
2023/05/07 18:46:05;;;;;;;10.35;5.10;;;;;;;18.98;100.00;100825.84;8300871;28;20045;-60